Time;durP1;ratioP1;P1;durP2;ratioP2;P2;SDS_P1;SDS_P2;PMS_P1;PMS_P2;Temp;Humidity;BMP_temperature;BMP_pressure;BME280_temperature;BME280_humidity;BME280_pressure;Samples;Min_cycle;Max_cycle;Signal;HPM_P1;HPM_P2
2022/05/28 00:00:56;;;;;;;;;7.75;6.25;;;;;17.44;48.99;102244.19;2458831;27;46442;-85
2022/05/28 00:02:07;;;;;;;;;6.75;6.75;;;;;17.45;48.69;102242.41;2454466;27;44768;-85
2022/05/28 00:03:18;;;;;;;;;5.00;5.00;;;;;17.42;48.95;102241.59;2449486;27;48577;-85
2022/05/28 00:04:29;;;;;;;;;7.50;7.00;;;;;17.41;48.78;102247.81;2455324;27;45446;-85
2022/05/28 00:05:40;;;;;;;;;7.00;6.00;;;;;17.41;48.73;102244.28;2459141;27;46447;-85
2022/05/28 00:06:51;;;;;;;;;11.00;6.50;;;;;17.40;49.02;102245.22;2454159;27;44772;-85
2022/05/28 00:08:01;;;;;;;;;5.00;5.00;;;;;17.38;49.36;102250.63;2445111;28;48208;-85
2022/05/28 00:09:12;;;;;;;;;5.00;5.00;;;;;17.38;48.78;102244.44;2450577;27;45222;-85
2022/05/28 00:10:23;;;;;;;;;4.00;4.00;;;;;17.37;49.21;102245.34;2455117;27;48110;-85
2022/05/28 00:11:37;;;;;;;;;6.00;6.00;;;;;17.37;49.33;102248.00;2450264;27;45289;-85
2022/05/28 00:12:47;;;;;;;;;7.75;5.25;;;;;17.35;49.42;102244.53;2450163;28;46392;-85
2022/05/28 00:13:58;;;;;;;;;6.00;6.00;;;;;17.34;49.66;102241.00;2458888;27;45415;-84
2022/05/28 00:15:10;;;;;;;;;6.75;6.75;;;;;17.30;49.95;102248.25;2454260;27;45333;-85
2022/05/28 00:16:21;;;;;;;;;7.75;6.50;;;;;17.26;50.01;102237.78;2452782;27;45214;-85
2022/05/28 00:17:31;;;;;;;;;7.00;7.00;;;;;17.20;50.08;102237.09;2459652;27;46978;-83
2022/05/28 00:18:42;;;;;;;;;10.75;6.25;;;;;17.19;50.52;102239.78;2449406;27;44600;-84
2022/05/28 00:19:54;;;;;;;;;7.00;7.00;;;;;17.16;50.39;102235.47;2458430;27;45488;-84
2022/05/28 00:21:04;;;;;;;;;4.75;4.75;;;;;17.15;50.58;102227.53;2450636;27;45263;-84
2022/05/28 00:22:15;;;;;;;;;6.50;6.50;;;;;17.14;50.29;102233.75;2457856;27;45441;-84
2022/05/28 00:23:25;;;;;;;;;4.75;3.00;;;;;17.14;50.31;102231.97;2456389;27;45196;-84
2022/05/28 00:24:35;;;;;;;;;9.00;7.00;;;;;17.13;50.68;102227.59;2449981;27;46870;-84
2022/05/28 00:25:47;;;;;;;;;7.50;6.00;;;;;17.15;50.48;102231.09;2463617;27;45260;-84
2022/05/28 00:26:57;;;;;;;;;7.75;7.25;;;;;17.16;50.78;102234.63;2453216;27;47514;-84
2022/05/28 00:28:07;;;;;;;;;5.50;5.50;;;;;17.15;50.65;102230.19;2451872;27;45415;-84
2022/05/28 00:29:18;;;;;;;;;8.00;6.50;;;;;17.15;50.41;102232.84;2451427;28;48191;-84
2022/05/28 00:30:28;;;;;;;;;7.25;7.25;;;;;17.15;50.57;102233.75;2445090;28;45487;-84
2022/05/28 00:31:38;;;;;;;;;9.00;7.00;;;;;17.14;50.72;102228.44;2451620;28;45269;-84
2022/05/28 00:32:49;;;;;;;;;8.50;7.00;;;;;17.15;50.69;102228.44;2452246;27;45262;-83
2022/05/28 00:33:59;;;;;;;;;5.75;5.25;;;;;17.15;50.65;102227.53;2470416;27;48335;-84
2022/05/28 00:35:15;;;;;;;;;9.00;7.50;;;;;17.16;51.08;102229.31;2458627;27;44667;-83
2022/05/28 00:36:26;;;;;;;;;7.00;5.00;;;;;17.17;51.19;102226.56;2447497;27;48184;-84
2022/05/28 00:37:36;;;;;;;;;10.75;5.75;;;;;17.17;51.13;102229.22;2461788;27;44748;-85
2022/05/28 00:38:46;;;;;;;;;7.00;7.00;;;;;17.18;50.80;102227.44;2453447;27;45322;-84
2022/05/28 00:39:57;;;;;;;;;9.50;5.25;;;;;17.16;50.90;102224.00;2454264;27;45287;-84
2022/05/28 00:41:09;;;;;;;;;9.00;8.25;;;;;17.16;50.59;102227.50;2456450;27;46366;-84
2022/05/28 00:42:19;;;;;;;;;8.25;8.25;;;;;17.14;50.97;102217.81;2458593;27;45711;-84
2022/05/28 00:43:30;;;;;;;;;8.00;7.25;;;;;17.11;50.90;102218.81;2454033;27;47392;-84
2022/05/28 00:44:41;;;;;;;;;10.25;8.75;;;;;17.12;50.80;102217.00;2464949;27;45318;-84
2022/05/28 00:46:05;;;;;;;;;8.75;8.25;;;;;17.13;51.40;102216.09;2456554;27;48240;-84
2022/05/28 00:47:17;;;;;;;;;6.50;5.50;;;;;17.13;51.10;102218.75;2458720;27;45346;-84
2022/05/28 00:48:31;;;;;;;;;6.50;6.50;;;;;17.10;51.09;102220.59;2462027;27;45267;-84
2022/05/28 00:49:43;;;;;;;;;7.00;6.75;;;;;17.04;51.19;102220.81;2452239;27;45223;-85
2022/05/28 00:50:53;;;;;;;;;11.50;8.25;;;;;17.03;51.07;102216.44;2452518;27;47329;-84
2022/05/28 00:52:07;;;;;;;;;1.00;0.00;;;;;16.99;51.34;102218.31;2451490;28;45310;-85
2022/05/28 00:53:19;;;;;;;;;5.25;3.00;;;;;16.95;51.22;102213.19;2451455;28;46215;-84
2022/05/28 00:54:39;;;;;;;;;10.25;5.00;;;;;16.91;51.51;102214.22;2452351;27;45328;-85
2022/05/28 00:55:49;;;;;;;;;8.00;6.75;;;;;16.90;51.15;102215.13;2455444;27;47821;-85
2022/05/28 00:57:02;;;;;;;;;7.00;5.00;;;;;16.86;51.50;102212.63;2451423;28;45381;-85
2022/05/28 00:58:13;;;;;;;;;6.25;6.00;;;;;16.85;51.61;102210.88;2451441;27;46285;-85
2022/05/28 00:59:23;;;;;;;;;8.75;8.25;;;;;16.84;51.35;102216.25;2451732;27;45473;-84
2022/05/28 01:00:35;;;;;;;;;7.25;7.00;;;;;16.82;51.45;102212.75;2453774;27;47522;-85
2022/05/28 01:01:45;;;;;;;;;6.75;4.75;;;;;16.84;51.66;102213.59;2451312;28;45289;-85
2022/05/28 01:03:11;;;;;;;;;9.50;6.75;;;;;16.88;51.76;102215.22;2451244;28;45413;-85
2022/05/28 01:04:42;;;;;;;;;7.75;6.00;;;;;16.85;51.39;102216.19;2458313;27;45319;-85
2022/05/28 01:06:09;;;;;;;;;7.25;6.25;;;;;16.83;51.57;102215.38;2452474;27;45311;-84
2022/05/28 01:07:30;;;;;;;;;10.00;8.25;;;;;16.85;51.53;102210.88;2466606;27;45354;-84
2022/05/28 01:08:48;;;;;;;;;6.50;6.25;;;;;16.85;51.39;102212.66;2459671;27;47091;-85
2022/05/28 01:10:06;;;;;;;;;7.50;5.25;;;;;16.87;51.57;102210.81;2455095;27;44615;-84
2022/05/28 01:11:26;;;;;;;;;6.00;5.75;;;;;16.87;51.37;102214.34;2461614;27;46525;-84
2022/05/28 01:12:57;;;;;;;;;7.75;5.50;;;;;16.86;51.80;102209.09;2460786;27;45302;-85
2022/05/28 01:14:15;;;;;;;;;9.00;7.00;;;;;16.85;51.40;102210.00;2455841;27;46178;-85
2022/05/28 01:15:33;;;;;;;;;6.00;5.25;;;;;16.84;51.70;102203.81;2452218;27;45192;-84
2022/05/28 01:16:49;;;;;;;;;9.00;6.00;;;;;16.84;51.47;102209.13;2459757;27;48654;-84
2022/05/28 01:18:25;;;;;;;;;5.25;4.50;;;;;16.86;51.70;102206.44;2461263;27;45415;-84
2022/05/28 01:19:45;;;;;;;;;9.25;6.50;;;;;16.86;51.63;102209.09;2460864;27;48479;-84
2022/05/28 01:21:04;;;;;;;;;7.75;6.50;;;;;16.87;51.80;102211.69;2451295;28;45240;-84
2022/05/28 01:22:52;;;;;;;;;6.25;6.00;;;;;16.90;51.71;102207.19;2453206;27;45310;-84
2022/05/28 01:24:24;;;;;;;;;5.00;5.00;;;;;16.86;51.79;102209.97;2451962;28;45181;-85
2022/05/28 01:25:56;;;;;;;;;9.25;5.75;;;;;16.84;51.73;102209.13;2452135;27;47295;-85
2022/05/28 01:27:12;;;;;;;;;6.00;6.00;;;;;16.80;51.83;102203.97;2465859;27;45305;-85
2022/05/28 01:28:29;;;;;;;;;7.50;6.75;;;;;16.78;51.75;102196.09;2464146;27;46471;-85
2022/05/28 01:29:48;;;;;;;;;6.50;6.25;;;;;16.76;51.81;102195.28;2451921;27;45386;-85
2022/05/28 01:31:00;;;;;;;;;6.00;6.00;;;;;16.75;52.06;102186.44;2451862;27;45837;-85
2022/05/28 01:32:12;;;;;;;;;8.00;7.00;;;;;16.77;52.08;102191.69;2452977;27;45151;-85
2022/05/28 01:33:24;;;;;;;;;12.50;6.00;;;;;16.76;51.86;102195.28;2456538;27;47030;-85
2022/05/28 01:34:34;;;;;;;;;6.75;5.75;;;;;16.77;51.83;102191.69;2451911;27;45234;-85
2022/05/28 01:35:46;;;;;;;;;7.50;5.75;;;;;16.78;51.93;102188.13;2455433;27;46179;-85
2022/05/28 01:37:01;;;;;;;;;6.00;6.00;;;;;16.80;52.20;102196.03;2450020;28;45291;-85
2022/05/28 01:38:14;;;;;;;;;7.00;7.00;;;;;16.77;52.14;102194.34;2451308;28;45411;-85
2022/05/28 01:39:26;;;;;;;;;8.00;6.00;;;;;16.76;52.25;102188.19;2470267;27;44648;-85
2022/05/28 01:40:39;;;;;;;;;8.75;6.00;;;;;16.78;52.05;102189.91;2457611;27;47385;-85
2022/05/28 01:41:50;;;;;;;;;8.75;6.00;;;;;16.78;52.44;102193.44;2453591;27;45381;-85
2022/05/28 01:43:05;;;;;;;;;9.25;8.00;;;;;16.78;52.72;102193.44;2452859;27;45686;-85
2022/05/28 01:44:17;;;;;;;;;8.75;8.75;;;;;16.77;52.77;102194.34;2451025;28;44664;-85
2022/05/28 01:45:31;;;;;;;;;7.50;6.25;;;;;16.79;52.41;102195.16;2459832;27;45587;-84
2022/05/28 01:46:44;;;;;;;;;10.00;9.00;;;;;16.80;52.41;102202.22;2456139;27;45326;-85
2022/05/28 01:47:59;;;;;;;;;8.25;8.25;;;;;16.75;52.01;102190.88;2451232;27;45523;-85
2022/05/28 01:49:13;;;;;;;;;11.00;8.25;;;;;16.75;51.92;102190.88;2451860;27;45316;-84
2022/05/28 01:50:27;;;;;;;;;11.25;8.75;;;;;16.75;52.55;102193.53;2459992;27;47141;-84
2022/05/28 01:51:43;;;;;;;;;12.25;9.00;;;;;16.75;52.48;102194.41;2464023;27;45470;-84
2022/05/28 01:52:55;;;;;;;;;9.50;7.75;;;;;16.74;52.27;102190.00;2463048;27;45355;-84
2022/05/28 01:54:08;;;;;;;;;11.50;8.25;;;;;16.75;52.47;102196.19;2451324;27;45240;-84
2022/05/28 01:55:20;;;;;;;;;14.50;11.75;;;;;16.73;52.63;102184.75;2453493;27;47314;-84
2022/05/28 01:56:31;;;;;;;;;9.75;9.50;;;;;16.74;52.74;102187.34;2454921;27;45403;-84
2022/05/28 01:57:41;;;;;;;;;10.75;8.50;;;;;16.73;52.63;102184.75;2453233;27;48297;-84
2022/05/28 01:58:52;;;;;;;;;12.00;8.50;;;;;16.73;52.72;102188.28;2461905;27;45184;-84
2022/05/28 02:00:04;;;;;;;;;9.75;7.50;;;;;16.71;52.91;102182.19;2452987;27;47888;-84
2022/05/28 02:01:14;;;;;;;;;15.00;7.75;;;;;16.71;52.50;102181.31;2452773;27;45511;-84
2022/05/28 02:02:25;;;;;;;;;12.00;10.25;;;;;16.70;52.62;102184.88;2465148;27;47116;-84
2022/05/28 02:03:44;;;;;;;;;10.00;9.50;;;;;16.70;52.76;102179.56;2458859;27;45292;-84
2022/05/28 02:04:54;;;;;;;;;13.00;9.50;;;;;16.68;52.45;102181.41;2464574;27;47198;-84
2022/05/28 02:06:05;;;;;;;;;16.00;9.75;;;;;16.67;52.75;102185.00;2459486;27;45257;-83
2022/05/28 02:07:17;;;;;;;;;11.00;10.75;;;;;16.64;52.71;102181.50;2453428;27;48303;-84
2022/05/28 02:08:32;;;;;;;;;12.50;9.00;;;;;16.64;52.59;102176.19;2454095;27;44686;-84
2022/05/28 02:09:48;;;;;;;;;10.00;8.50;;;;;16.61;52.90;102180.78;2457578;27;45395;-85
2022/05/28 02:11:08;;;;;;;;;11.50;11.50;;;;;16.61;52.74;102178.13;2455773;27;45343;-84
2022/05/28 02:12:30;;;;;;;;;11.50;10.25;;;;;16.60;52.46;102169.28;2451048;28;45405;-84
2022/05/28 02:13:55;;;;;;;;;10.75;9.75;;;;;16.60;52.61;102184.31;2450570;27;45324;-85
2022/05/28 02:15:09;;;;;;;;;13.25;11.50;;;;;16.58;53.05;102172.91;2454239;27;46380;-84
2022/05/28 02:16:29;;;;;;;;;11.00;10.00;;;;;16.58;52.88;102180.88;2460549;27;45424;-84
2022/05/28 02:17:45;;;;;;;;;6.50;6.50;;;;;16.55;52.64;102173.88;2453967;27;47680;-84
2022/05/28 02:19:00;;;;;;;;;11.50;10.25;;;;;16.54;52.44;102174.81;2450862;27;44892;-85
2022/05/28 02:20:10;;;;;;;;;13.25;11.50;;;;;16.52;52.36;102168.66;2444241;27;46238;-85
2022/05/28 02:21:31;;;;;;;;;11.75;10.50;;;;;16.49;52.42;102172.34;2460863;27;45353;-85
2022/05/28 02:22:57;;;;;;;;;15.25;9.75;;;;;16.48;52.45;102175.03;2461279;27;45339;-85
2022/05/28 02:24:16;;;;;;;;;11.75;9.25;;;;;16.45;52.36;102172.47;2455994;27;45491;-84
2022/05/28 02:25:34;;;;;;;;;11.50;10.25;;;;;16.39;52.57;102165.59;2456164;27;47111;-85
2022/05/28 02:26:57;;;;;;;;;12.25;11.00;;;;;16.36;52.47;102171.88;2463179;27;44663;-85
2022/05/28 02:28:09;;;;;;;;;11.00;9.00;;;;;16.35;52.44;102170.13;2454231;27;47121;-84
2022/05/28 02:29:20;;;;;;;;;9.75;9.50;;;;;16.35;52.44;102163.97;2450897;28;45401;-85
2022/05/28 02:30:32;;;;;;;;;7.25;7.25;;;;;16.34;52.90;102164.91;2451213;28;46498;-85
2022/05/28 02:31:45;;;;;;;;;9.25;9.00;;;;;16.38;53.10;102174.47;2454710;27;45238;-85
2022/05/28 02:33:06;;;;;;;;;11.75;9.50;;;;;16.37;52.87;102165.63;2460081;27;47495;-85
2022/05/28 02:34:19;;;;;;;;;7.00;7.00;;;;;16.38;52.94;102167.38;2446939;28;45392;-85
2022/05/28 02:35:30;;;;;;;;;11.75;9.25;;;;;16.39;52.92;102165.59;2453544;27;48361;-84
2022/05/28 02:36:40;;;;;;;;;11.75;8.75;;;;;16.38;52.72;102162.06;2458380;27;45171;-85
2022/05/28 02:37:51;;;;;;;;;9.25;8.75;;;;;16.39;52.77;102161.19;2459014;27;45402;-85
2022/05/28 02:39:01;;;;;;;;;8.25;7.00;;;;;16.37;52.92;102162.16;2457407;27;44716;-85
2022/05/28 02:40:12;;;;;;;;;11.75;9.25;;;;;16.36;53.06;102155.09;2460257;27;45399;-85
2022/05/28 02:41:23;;;;;;;;;10.75;9.25;;;;;16.35;53.14;102161.31;2460344;27;45266;-84
2022/05/28 02:42:33;;;;;;;;;10.00;7.75;;;;;16.36;53.31;102157.75;2457457;27;46622;-85
2022/05/28 02:43:44;;;;;;;;;13.50;9.75;;;;;16.35;53.30;102154.22;2451320;27;45254;-84
2022/05/28 02:44:54;;;;;;;;;9.75;8.00;;;;;16.34;53.23;102163.13;2450971;27;46598;-85
2022/05/28 02:46:06;;;;;;;;;11.25;9.75;;;;;16.34;53.39;102162.25;2450898;27;45352;-85
2022/05/28 02:47:16;;;;;;;;;12.50;9.00;;;;;16.31;53.45;102158.78;2450296;28;46433;-84
2022/05/28 02:48:27;;;;;;;;;12.00;10.00;;;;;16.33;53.33;102161.38;2451275;27;45298;-84
2022/05/28 02:49:37;;;;;;;;;12.50;9.25;;;;;16.32;53.44;102157.00;2451011;27;45451;-84
2022/05/28 02:50:48;;;;;;;;;11.25;10.00;;;;;16.33;53.83;102157.84;2451290;27;45305;-84
2022/05/28 02:52:03;;;;;;;;;11.50;9.25;;;;;16.30;53.70;102150.84;2450219;28;48053;-84
2022/05/28 02:53:13;;;;;;;;;6.25;6.00;;;;;16.30;53.52;102156.16;2449507;27;45515;-85
2022/05/28 02:54:24;;;;;;;;;10.00;8.00;;;;;16.28;53.57;102150.03;2460187;27;45242;-84
2022/05/28 02:55:34;;;;;;;;;12.50;10.50;;;;;16.27;53.73;102153.63;2459095;27;44603;-84
2022/05/28 02:56:45;;;;;;;;;10.25;10.25;;;;;16.25;53.92;102155.47;2460930;27;45510;-84
2022/05/28 02:57:56;;;;;;;;;10.75;7.25;;;;;16.24;53.95;102156.38;2452377;27;45227;-84
2022/05/28 02:59:06;;;;;;;;;9.00;8.50;;;;;16.23;53.76;102165.25;2450833;27;45323;-84
2022/05/28 03:00:17;;;;;;;;;8.75;7.50;;;;;16.21;53.94;102154.72;2451308;27;45314;-84
2022/05/28 03:01:32;;;;;;;;;12.75;8.75;;;;;16.19;53.90;102154.78;2451083;27;47320;-84
2022/05/28 03:02:44;;;;;;;;;9.50;6.50;;;;;16.18;54.09;102152.16;2450940;27;45311;-84
2022/05/28 03:03:56;;;;;;;;;8.50;7.00;;;;;16.16;53.98;102154.88;2455095;27;47896;-84
2022/05/28 03:05:07;;;;;;;;;10.00;8.25;;;;;16.17;54.06;102156.59;2452174;27;45226;-84
2022/05/28 03:06:17;;;;;;;;;11.00;10.00;;;;;16.16;54.07;102148.69;2460302;27;47428;-84
2022/05/28 03:07:28;;;;;;;;;13.00;9.50;;;;;16.13;54.02;102146.13;2458200;27;45333;-84
2022/05/28 03:08:38;;;;;;;;;9.75;7.25;;;;;16.14;54.03;102153.19;2453028;27;47360;-84
2022/05/28 03:09:49;;;;;;;;;11.25;9.25;;;;;16.11;53.92;102151.50;2462340;27;45290;-84
2022/05/28 03:10:59;;;;;;;;;12.50;8.75;;;;;16.08;54.17;102146.28;2450964;27;45358;-84
2022/05/28 03:12:10;;;;;;;;;11.75;7.50;;;;;16.07;54.09;102147.22;2451200;27;44869;-84
2022/05/28 03:13:20;;;;;;;;;14.00;8.50;;;;;16.06;54.26;102149.00;2450988;27;45510;-84
2022/05/28 03:14:31;;;;;;;;;9.00;8.75;;;;;16.04;54.26;102145.53;2451062;27;45386;-84
2022/05/28 03:15:41;;;;;;;;;12.75;9.25;;;;;16.03;53.96;102149.06;2451986;27;45504;-84
2022/05/28 03:16:52;;;;;;;;;10.50;9.25;;;;;16.01;54.11;102144.72;2451332;27;45450;-84
2022/05/28 03:18:03;;;;;;;;;7.25;5.00;;;;;15.98;54.30;102154.53;2456555;27;47783;-84
2022/05/28 03:19:13;;;;;;;;;8.25;7.25;;;;;15.95;54.58;102149.31;2458032;27;45295;-84
2022/05/28 03:20:23;;;;;;;;;10.00;10.00;;;;;15.92;54.31;102146.78;2450928;27;45366;-84
2022/05/28 03:21:34;;;;;;;;;9.25;8.75;;;;;15.94;54.37;102150.25;2451246;27;45230;-84
2022/05/28 03:22:44;;;;;;;;;11.75;9.00;;;;;15.90;54.56;102143.31;2456131;27;47412;-84
2022/05/28 03:23:54;;;;;;;;;10.50;9.50;;;;;15.91;54.58;102146.81;2448654;27;45254;-84
2022/05/28 03:25:05;;;;;;;;;8.50;7.25;;;;;15.89;54.77;102144.25;2452003;27;47280;-84
2022/05/28 03:26:24;;;;;;;;;9.25;8.00;;;;;15.87;55.22;102146.06;2450468;28;44786;-84
2022/05/28 03:27:35;;;;;;;;;6.00;4.75;;;;;15.84;54.58;102147.03;2458985;27;45169;-84
2022/05/28 03:28:49;;;;;;;;;8.00;8.00;;;;;15.83;54.58;102149.72;2454649;27;45267;-84
2022/05/28 03:29:59;;;;;;;;;9.50;8.75;;;;;15.81;54.60;102147.13;2444299;27;47336;-84
2022/05/28 03:31:10;;;;;;;;;8.25;6.75;;;;;15.79;54.77;102146.31;2450272;28;45432;-84
2022/05/28 03:32:20;;;;;;;;;9.50;9.25;;;;;15.76;54.71;102141.13;2456988;27;46703;-84
2022/05/28 03:33:31;;;;;;;;;11.00;8.75;;;;;15.74;54.86;102143.81;2456958;27;44797;-84
2022/05/28 03:34:41;;;;;;;;;11.50;9.50;;;;;15.72;54.95;102143.00;2453254;27;46357;-84
2022/05/28 03:35:51;;;;;;;;;13.50;9.50;;;;;15.72;55.01;102143.00;2459279;27;44755;-84
2022/05/28 03:37:02;;;;;;;;;11.25;9.50;;;;;15.71;55.16;102143.91;2455627;27;45242;-84
2022/05/28 03:38:12;;;;;;;;;11.50;9.00;;;;;15.70;55.21;102154.59;2460966;27;44565;-84
2022/05/28 03:39:23;;;;;;;;;10.50;9.00;;;;;15.68;55.27;102154.59;2456932;27;47380;-84
2022/05/28 03:40:34;;;;;;;;;9.75;8.00;;;;;15.67;55.25;102158.19;2457402;27;45262;-84
2022/05/28 03:41:44;;;;;;;;;11.25;9.00;;;;;15.64;55.18;102150.34;2455467;27;47091;-84
2022/05/28 03:42:54;;;;;;;;;13.75;10.50;;;;;15.64;55.01;102155.63;2443159;28;45258;-84
2022/05/28 03:44:05;;;;;;;;;10.25;9.50;;;;;15.61;54.96;102151.28;2450049;28;46469;-84
2022/05/28 03:45:15;;;;;;;;;12.75;9.25;;;;;15.59;55.20;102154.91;2455856;27;45188;-84
2022/05/28 03:46:29;;;;;;;;;12.75;10.50;;;;;15.58;55.28;102143.44;2459974;27;45410;-84
2022/05/28 03:47:39;;;;;;;;;11.00;8.75;;;;;15.57;55.39;102148.78;2460637;27;45344;-84
2022/05/28 03:48:51;;;;;;;;;7.50;6.75;;;;;15.54;55.38;102149.75;2451404;27;47431;-84
2022/05/28 03:50:03;;;;;;;;;10.50;8.00;;;;;15.52;55.53;102155.13;2450328;28;45312;-84
2022/05/28 03:51:13;;;;;;;;;10.75;8.50;;;;;15.52;55.31;102155.13;2450995;27;46605;-84
2022/05/28 03:52:24;;;;;;;;;17.25;12.00;;;;;15.49;55.40;102155.19;2450217;28;45242;-84
2022/05/28 03:53:34;;;;;;;;;10.00;8.75;;;;;15.50;55.44;102151.66;2450679;27;45637;-84
2022/05/28 03:54:45;;;;;;;;;11.25;9.50;;;;;15.46;55.65;102147.34;2450992;27;45163;-84
2022/05/28 03:55:56;;;;;;;;;11.75;10.50;;;;;15.44;55.55;102151.81;2457293;27;47002;-84
2022/05/28 03:57:08;;;;;;;;;10.50;8.75;;;;;15.44;55.78;102151.81;2460247;27;45252;-84
2022/05/28 03:58:18;;;;;;;;;10.75;8.75;;;;;15.42;55.75;102153.66;2459564;27;47411;-84
2022/05/28 03:59:29;;;;;;;;;10.25;9.25;;;;;15.40;55.84;102147.56;2457486;27;45347;-84
2022/05/28 04:00:40;;;;;;;;;10.00;8.00;;;;;15.39;55.97;102151.09;2457279;27;46103;-84
2022/05/28 04:01:53;;;;;;;;;12.75;7.75;;;;;15.38;55.97;102158.16;2455882;27;45532;-84
2022/05/28 04:03:04;;;;;;;;;8.00;8.00;;;;;15.38;55.87;102159.97;2461301;27;47435;-84
2022/05/28 04:04:14;;;;;;;;;9.25;9.25;;;;;15.36;56.03;102164.47;2465887;27;45329;-84
2022/05/28 04:05:25;;;;;;;;;13.25;11.00;;;;;15.35;55.83;102152.13;2452228;27;45575;-84
2022/05/28 04:06:37;;;;;;;;;9.75;7.75;;;;;15.34;56.34;102155.66;2453532;27;45165;-84
2022/05/28 04:07:47;;;;;;;;;13.00;10.50;;;;;15.33;55.87;102159.25;2462317;27;45536;-84
2022/05/28 04:08:58;;;;;;;;;11.00;8.50;;;;;15.30;55.94;102161.09;2453611;27;45267;-84
2022/05/28 04:10:09;;;;;;;;;10.25;10.25;;;;;15.30;56.07;102161.09;2457771;27;45472;-84
2022/05/28 04:11:20;;;;;;;;;14.75;12.75;;;;;15.29;56.40;102161.09;2454988;27;44750;-84
2022/05/28 04:12:30;;;;;;;;;11.25;9.75;;;;;15.29;56.31;102166.41;2446027;27;47115;-84
2022/05/28 04:13:41;;;;;;;;;8.75;8.75;;;;;15.28;55.48;102165.53;2464368;27;45246;-84
2022/05/28 04:14:51;;;;;;;;;12.00;9.75;;;;;15.26;55.99;102169.16;2461039;27;46220;-84
2022/05/28 04:16:03;;;;;;;;;15.75;10.00;;;;;15.24;56.11;102166.53;2452401;27;45263;-85
2022/05/28 04:17:13;;;;;;;;;11.50;8.25;;;;;15.23;56.20;102170.13;2452066;27;45318;-84
2022/05/28 04:18:24;;;;;;;;;10.25;9.25;;;;;15.23;56.25;102174.56;2452552;27;45257;-84
2022/05/28 04:19:34;;;;;;;;;10.25;10.25;;;;;15.22;56.38;102171.03;2451435;28;47466;-84
2022/05/28 04:20:45;;;;;;;;;9.50;9.50;;;;;15.23;56.28;102169.25;2451914;27;44752;-84
2022/05/28 04:21:55;;;;;;;;;9.75;9.75;;;;;15.22;56.47;102168.38;2457689;27;45583;-84
2022/05/28 04:23:05;;;;;;;;;8.75;7.50;;;;;15.22;56.50;102172.81;2452289;27;45280;-84
2022/05/28 04:24:17;;;;;;;;;10.25;8.25;;;;;15.21;56.41;102174.56;2451127;27;47847;-84
2022/05/28 04:25:27;;;;;;;;;9.25;7.75;;;;;15.21;56.74;102179.88;2453372;27;44731;-84
2022/05/28 04:26:37;;;;;;;;;13.25;10.25;;;;;15.19;56.56;102179.94;2456951;27;45538;-84
2022/05/28 04:27:48;;;;;;;;;9.75;9.25;;;;;15.21;56.41;102181.69;2461452;27;44655;-84
2022/05/28 04:28:58;;;;;;;;;11.50;7.50;;;;;15.18;56.70;102175.56;2461466;27;45340;-84
2022/05/28 04:30:10;;;;;;;;;11.25;9.75;;;;;15.21;56.78;102179.03;2454205;27;44664;-84
2022/05/28 04:31:20;;;;;;;;;8.00;6.00;;;;;15.19;56.67;102176.41;2452022;27;45463;-84
2022/05/28 04:32:31;;;;;;;;;9.50;9.50;;;;;15.20;56.75;102180.81;2451437;28;45256;-84
2022/05/28 04:33:41;;;;;;;;;12.00;10.25;;;;;15.17;56.87;102181.75;2459171;27;46177;-84
2022/05/28 04:34:51;;;;;;;;;12.00;9.75;;;;;15.17;56.60;102181.75;2452262;27;45483;-84
2022/05/28 04:36:02;;;;;;;;;11.50;8.50;;;;;15.18;56.93;102185.28;2452162;27;45821;-84
2022/05/28 04:37:12;;;;;;;;;12.75;10.00;;;;;15.17;56.87;102176.47;2451602;28;45267;-84
2022/05/28 04:38:23;;;;;;;;;11.75;9.75;;;;;15.15;56.91;102177.41;2459915;27;45288;-84
2022/05/28 04:39:34;;;;;;;;;10.25;8.75;;;;;15.16;57.00;102182.66;2457270;27;44810;-84
2022/05/28 04:40:44;;;;;;;;;10.00;9.25;;;;;15.15;57.06;102183.59;2451727;27;45459;-84
2022/05/28 04:41:55;;;;;;;;;9.50;9.50;;;;;15.16;57.15;102187.13;2453920;27;45196;-85
2022/05/28 04:43:05;;;;;;;;;9.75;8.50;;;;;15.15;57.12;102186.25;2451986;27;46485;-84
2022/05/28 04:44:16;;;;;;;;;9.25;8.00;;;;;15.16;57.03;102193.25;2452122;27;45201;-85
2022/05/28 04:45:26;;;;;;;;;14.25;10.50;;;;;15.16;56.92;102187.13;2452098;27;45406;-85
2022/05/28 04:46:37;;;;;;;;;11.25;8.00;;;;;15.16;57.09;102187.13;2452242;27;45195;-85
2022/05/28 04:47:47;;;;;;;;;14.00;10.25;;;;;15.16;57.10;102187.97;2451829;27;45345;-84
2022/05/28 04:48:57;;;;;;;;;9.25;9.25;;;;;15.16;57.04;102187.13;2452178;27;44666;-84
2022/05/28 04:50:09;;;;;;;;;9.00;8.00;;;;;15.17;57.07;102197.66;2451317;27;47097;-84
2022/05/28 04:51:19;;;;;;;;;9.75;9.50;;;;;15.17;57.13;102186.19;2460928;27;45213;-84
2022/05/28 04:52:29;;;;;;;;;11.25;11.00;;;;;15.17;57.48;102196.78;2457637;27;46923;-85
2022/05/28 04:53:40;;;;;;;;;10.75;10.75;;;;;15.17;56.98;102196.78;2459603;27;45373;-85
2022/05/28 04:54:50;;;;;;;;;8.50;8.50;;;;;15.16;57.24;102198.53;2458640;27;45644;-85
2022/05/28 04:56:00;;;;;;;;;11.75;9.50;;;;;15.16;57.17;102195.91;2451421;28;45337;-84
2022/05/28 04:57:11;;;;;;;;;9.25;9.25;;;;;15.16;57.03;102185.31;2457381;27;46274;-84
2022/05/28 04:58:21;;;;;;;;;8.50;7.75;;;;;15.15;57.40;102188.00;2459663;27;45302;-84
2022/05/28 04:59:32;;;;;;;;;11.25;9.50;;;;;15.15;57.20;102188.88;2452029;27;46588;-84
2022/05/28 05:00:45;;;;;;;;;9.50;8.50;;;;;15.17;57.39;102188.84;2459772;27;46648;-84
2022/05/28 05:01:56;;;;;;;;;10.75;8.50;;;;;15.16;57.11;102189.75;2455903;27;46267;-85
2022/05/28 05:03:06;;;;;;;;;9.00;8.25;;;;;15.17;57.27;102192.34;2462776;27;45180;-84
2022/05/28 05:04:16;;;;;;;;;10.25;10.25;;;;;15.18;57.40;102190.59;2465695;27;46655;-85
2022/05/28 05:05:27;;;;;;;;;10.50;9.25;;;;;15.22;57.39;102186.03;2453357;27;45247;-84
2022/05/28 05:06:37;;;;;;;;;8.25;7.50;;;;;15.22;57.53;102189.56;2453517;27;45395;-84
2022/05/28 05:07:48;;;;;;;;;9.25;9.25;;;;;15.22;57.48;102186.03;2461022;27;45332;-84
2022/05/28 05:08:58;;;;;;;;;12.50;9.75;;;;;15.25;57.31;102188.59;2451433;28;45609;-84
2022/05/28 05:10:10;;;;;;;;;10.25;10.25;;;;;15.25;57.42;102194.78;2451285;28;45471;-85
2022/05/28 05:11:21;;;;;;;;;11.25;9.50;;;;;15.26;57.32;102203.59;2451212;27;45859;-84
2022/05/28 05:12:31;;;;;;;;;12.50;9.75;;;;;15.26;57.14;102199.16;2453594;27;45255;-85
2022/05/28 05:13:41;;;;;;;;;11.00;9.75;;;;;15.26;57.40;102196.50;2460655;27;48377;-84
2022/05/28 05:14:52;;;;;;;;;12.00;10.50;;;;;15.23;57.22;102198.38;2451262;27;45172;-85
2022/05/28 05:16:10;;;;;;;;;8.75;8.75;;;;;15.24;57.46;102198.31;2451464;28;46388;-84
2022/05/28 05:17:21;;;;;;;;;8.75;7.75;;;;;15.25;57.57;102194.78;2451888;28;45399;-85
2022/05/28 05:18:31;;;;;;;;;11.00;9.50;;;;;15.27;57.30;102192.94;2458156;27;46262;-84
2022/05/28 05:19:41;;;;;;;;;8.75;8.00;;;;;15.31;57.52;102204.31;2459375;27;45228;-84
2022/05/28 05:20:52;;;;;;;;;13.00;9.75;;;;;15.36;57.49;102201.56;2455466;27;45180;-84
2022/05/28 05:22:02;;;;;;;;;13.00;10.75;;;;;15.39;57.56;102201.44;2452052;27;45286;-84
2022/05/28 05:23:13;;;;;;;;;10.50;10.50;;;;;15.44;57.10;102196.88;2451097;27;46993;-84
2022/05/28 05:24:24;;;;;;;;;10.75;8.00;;;;;15.44;56.97;102188.91;2458112;27;45181;-84
2022/05/28 05:25:34;;;;;;;;;9.25;8.75;;;;;15.45;56.93;102185.38;2457173;27;47269;-84
2022/05/28 05:26:45;;;;;;;;;12.25;9.50;;;;;15.48;56.76;102189.72;2451872;27;45281;-84
2022/05/28 05:27:55;;;;;;;;;10.75;7.50;;;;;15.50;56.78;102191.41;2451338;28;46571;-84
2022/05/28 05:29:05;;;;;;;;;13.75;10.00;;;;;15.51;56.97;102195.75;2451855;27;45402;-84
2022/05/28 05:30:16;;;;;;;;;17.00;11.00;;;;;15.53;56.83;102195.75;2456014;27;45558;-83
2022/05/28 05:31:26;;;;;;;;;9.25;8.50;;;;;15.56;56.65;102197.41;2460532;27;46713;-84
2022/05/28 05:32:37;;;;;;;;;7.75;7.75;;;;;15.56;56.50;102186.78;2460743;27;46195;-84
2022/05/28 05:33:47;;;;;;;;;12.50;10.50;;;;;15.57;56.82;102188.53;2460852;27;45325;-84
2022/05/28 05:34:58;;;;;;;;;7.75;5.75;;;;;15.57;56.50;102184.13;2445329;28;47346;-84